sensor_id;sensor_type;location;lat;lon;timestamp;P1;durP1;ratioP1;P2;durP2;ratioP2
62610;SDS011;48683;48.084;17.272;2022-08-01T00:02:00;4.27;;;3.87;;
62610;SDS011;48683;48.084;17.272;2022-08-01T00:04:26;4.87;;;3.70;;
62610;SDS011;48683;48.084;17.272;2022-08-01T00:06:51;4.73;;;3.53;;
62610;SDS011;48683;48.084;17.272;2022-08-01T00:09:16;3.07;;;2.87;;
62610;SDS011;48683;48.084;17.272;2022-08-01T00:11:42;7.37;;;4.40;;
62610;SDS011;48683;48.084;17.272;2022-08-01T00:14:07;5.37;;;4.47;;
62610;SDS011;48683;48.084;17.272;2022-08-01T00:16:34;5.22;;;3.58;;
62610;SDS011;48683;48.084;17.272;2022-08-01T00:19:00;5.30;;;4.63;;
62610;SDS011;48683;48.084;17.272;2022-08-01T00:21:25;5.17;;;4.20;;
62610;SDS011;48683;48.084;17.272;2022-08-01T00:23:50;7.27;;;4.70;;
62610;SDS011;48683;48.084;17.272;2022-08-01T00:26:16;5.13;;;4.13;;
62610;SDS011;48683;48.084;17.272;2022-08-01T00:28:41;3.87;;;3.40;;
62610;SDS011;48683;48.084;17.272;2022-08-01T00:31:07;4.97;;;3.77;;
62610;SDS011;48683;48.084;17.272;2022-08-01T00:33:32;3.87;;;3.57;;
62610;SDS011;48683;48.084;17.272;2022-08-01T00:35:58;4.83;;;3.63;;
62610;SDS011;48683;48.084;17.272;2022-08-01T00:38:23;5.77;;;4.50;;
62610;SDS011;48683;48.084;17.272;2022-08-01T00:40:48;5.60;;;4.20;;
62610;SDS011;48683;48.084;17.272;2022-08-01T00:43:14;4.30;;;3.90;;
62610;SDS011;48683;48.084;17.272;2022-08-01T00:45:40;4.00;;;3.60;;
62610;SDS011;48683;48.084;17.272;2022-08-01T00:48:05;4.67;;;4.13;;
62610;SDS011;48683;48.084;17.272;2022-08-01T00:50:30;4.33;;;3.93;;
62610;SDS011;48683;48.084;17.272;2022-08-01T00:52:56;5.13;;;2.93;;
62610;SDS011;48683;48.084;17.272;2022-08-01T00:55:23;3.35;;;3.05;;
62610;SDS011;48683;48.084;17.272;2022-08-01T00:57:48;7.30;;;4.20;;
62610;SDS011;48683;48.084;17.272;2022-08-01T01:00:14;5.63;;;3.90;;
62610;SDS011;48683;48.084;17.272;2022-08-01T01:02:40;4.50;;;4.00;;
62610;SDS011;48683;48.084;17.272;2022-08-01T01:05:05;6.57;;;4.47;;
62610;SDS011;48683;48.084;17.272;2022-08-01T01:07:46;3.47;;;3.17;;
62610;SDS011;48683;48.084;17.272;2022-08-01T01:10:17;4.40;;;3.95;;
62610;SDS011;48683;48.084;17.272;2022-08-01T01:15:46;4.07;;;3.67;;
62610;SDS011;48683;48.084;17.272;2022-08-01T01:18:25;3.90;;;3.60;;
62610;SDS011;48683;48.084;17.272;2022-08-01T01:24:36;5.35;;;3.40;;
62610;SDS011;48683;48.084;17.272;2022-08-01T01:30:22;3.45;;;3.15;;
62610;SDS011;48683;48.084;17.272;2022-08-01T01:32:51;4.35;;;3.83;;
62610;SDS011;48683;48.084;17.272;2022-08-01T01:37:47;4.03;;;3.35;;
62610;SDS011;48683;48.084;17.272;2022-08-01T01:40:16;3.70;;;3.40;;
62610;SDS011;48683;48.084;17.272;2022-08-01T01:42:42;4.80;;;3.67;;
62610;SDS011;48683;48.084;17.272;2022-08-01T01:45:09;4.80;;;3.90;;
62610;SDS011;48683;48.084;17.272;2022-08-01T01:47:35;4.30;;;3.90;;
62610;SDS011;48683;48.084;17.272;2022-08-01T01:50:03;6.45;;;4.28;;
62610;SDS011;48683;48.084;17.272;2022-08-01T01:52:29;4.38;;;3.40;;
62610;SDS011;48683;48.084;17.272;2022-08-01T01:54:57;6.38;;;5.07;;
62610;SDS011;48683;48.084;17.272;2022-08-01T01:57:24;5.35;;;4.65;;
62610;SDS011;48683;48.084;17.272;2022-08-01T01:59:51;4.95;;;4.30;;
62610;SDS011;48683;48.084;17.272;2022-08-01T02:02:18;4.30;;;3.90;;
62610;SDS011;48683;48.084;17.272;2022-08-01T02:04:47;4.85;;;3.40;;
62610;SDS011;48683;48.084;17.272;2022-08-01T02:07:16;4.23;;;3.70;;
62610;SDS011;48683;48.084;17.272;2022-08-01T02:09:46;4.95;;;4.30;;
62610;SDS011;48683;48.084;17.272;2022-08-01T02:12:12;5.25;;;4.50;;
62610;SDS011;48683;48.084;17.272;2022-08-01T02:14:41;4.82;;;4.43;;
62610;SDS011;48683;48.084;17.272;2022-08-01T02:17:10;6.05;;;4.88;;
62610;SDS011;48683;48.084;17.272;2022-08-01T02:19:36;5.20;;;4.70;;
62610;SDS011;48683;48.084;17.272;2022-08-01T02:22:04;5.40;;;4.70;;
62610;SDS011;48683;48.084;17.272;2022-08-01T02:24:35;4.53;;;4.05;;
62610;SDS011;48683;48.084;17.272;2022-08-01T02:27:11;6.60;;;4.80;;
62610;SDS011;48683;48.084;17.272;2022-08-01T02:32:07;6.53;;;4.25;;
62610;SDS011;48683;48.084;17.272;2022-08-01T02:34:39;4.78;;;4.28;;
62610;SDS011;48683;48.084;17.272;2022-08-01T02:37:06;5.50;;;5.00;;
62610;SDS011;48683;48.084;17.272;2022-08-01T02:39:32;4.95;;;4.45;;
62610;SDS011;48683;48.084;17.272;2022-08-01T02:42:03;6.20;;;5.50;;
62610;SDS011;48683;48.084;17.272;2022-08-01T02:44:31;5.35;;;4.50;;
62610;SDS011;48683;48.084;17.272;2022-08-01T02:47:00;6.85;;;5.20;;
62610;SDS011;48683;48.084;17.272;2022-08-01T02:49:42;5.15;;;4.68;;
62610;SDS011;48683;48.084;17.272;2022-08-01T02:52:12;5.10;;;4.32;;
62610;SDS011;48683;48.084;17.272;2022-08-01T02:54:40;5.38;;;4.88;;
62610;SDS011;48683;48.084;17.272;2022-08-01T02:57:08;6.05;;;3.90;;
62610;SDS011;48683;48.084;17.272;2022-08-01T02:59:36;8.60;;;5.40;;
62610;SDS011;48683;48.084;17.272;2022-08-01T03:02:03;6.32;;;5.70;;
62610;SDS011;48683;48.084;17.272;2022-08-01T03:04:30;6.60;;;5.57;;
62610;SDS011;48683;48.084;17.272;2022-08-01T03:06:58;6.78;;;4.53;;
62610;SDS011;48683;48.084;17.272;2022-08-01T03:09:27;7.90;;;6.72;;
62610;SDS011;48683;48.084;17.272;2022-08-01T03:11:55;4.88;;;4.25;;
62610;SDS011;48683;48.084;17.272;2022-08-01T03:14:23;10.43;;;6.75;;
62610;SDS011;48683;48.084;17.272;2022-08-01T03:16:50;8.75;;;6.47;;
62610;SDS011;48683;48.084;17.272;2022-08-01T03:19:18;10.93;;;7.28;;
62610;SDS011;48683;48.084;17.272;2022-08-01T03:21:44;8.20;;;7.07;;
62610;SDS011;48683;48.084;17.272;2022-08-01T03:24:13;10.32;;;7.72;;
62610;SDS011;48683;48.084;17.272;2022-08-01T03:29:09;10.95;;;7.85;;
62610;SDS011;48683;48.084;17.272;2022-08-01T03:31:37;8.60;;;6.72;;
62610;SDS011;48683;48.084;17.272;2022-08-01T03:34:07;8.70;;;7.75;;
62610;SDS011;48683;48.084;17.272;2022-08-01T03:36:33;8.27;;;7.43;;
62610;SDS011;48683;48.084;17.272;2022-08-01T03:39:05;8.70;;;7.78;;
62610;SDS011;48683;48.084;17.272;2022-08-01T03:41:37;11.40;;;8.00;;
62610;SDS011;48683;48.084;17.272;2022-08-01T03:44:07;8.98;;;7.30;;
62610;SDS011;48683;48.084;17.272;2022-08-01T03:46:42;9.95;;;7.63;;
62610;SDS011;48683;48.084;17.272;2022-08-01T03:49:11;8.75;;;7.82;;
62610;SDS011;48683;48.084;17.272;2022-08-01T03:51:49;8.93;;;7.72;;
62610;SDS011;48683;48.084;17.272;2022-08-01T03:54:20;12.02;;;8.27;;
62610;SDS011;48683;48.084;17.272;2022-08-01T03:56:48;11.95;;;7.80;;
62610;SDS011;48683;48.084;17.272;2022-08-01T03:59:16;7.00;;;6.30;;
62610;SDS011;48683;48.084;17.272;2022-08-01T04:04:09;7.78;;;7.00;;
62610;SDS011;48683;48.084;17.272;2022-08-01T04:06:37;7.43;;;6.73;;
62610;SDS011;48683;48.084;17.272;2022-08-01T04:09:03;7.80;;;6.85;;
62610;SDS011;48683;48.084;17.272;2022-08-01T04:11:29;6.47;;;5.60;;
62610;SDS011;48683;48.084;17.272;2022-08-01T04:13:54;6.23;;;5.63;;
62610;SDS011;48683;48.084;17.272;2022-08-01T04:16:21;8.90;;;7.47;;
62610;SDS011;48683;48.084;17.272;2022-08-01T04:18:46;10.43;;;6.90;;
62610;SDS011;48683;48.084;17.272;2022-08-01T04:21:13;9.07;;;7.67;;
62610;SDS011;48683;48.084;17.272;2022-08-01T04:23:39;8.05;;;5.63;;
62610;SDS011;48683;48.084;17.272;2022-08-01T04:26:08;9.25;;;6.80;;
62610;SDS011;48683;48.084;17.272;2022-08-01T04:28:35;7.57;;;5.63;;
62610;SDS011;48683;48.084;17.272;2022-08-01T04:31:02;10.05;;;5.80;;
62610;SDS011;48683;48.084;17.272;2022-08-01T04:33:34;9.63;;;7.90;;
62610;SDS011;48683;48.084;17.272;2022-08-01T04:36:01;8.23;;;7.50;;
62610;SDS011;48683;48.084;17.272;2022-08-01T04:38:29;8.52;;;7.10;;
62610;SDS011;48683;48.084;17.272;2022-08-01T04:40:56;9.60;;;8.60;;
62610;SDS011;48683;48.084;17.272;2022-08-01T04:43:22;7.43;;;6.72;;
62610;SDS011;48683;48.084;17.272;2022-08-01T04:45:48;8.33;;;7.53;;
62610;SDS011;48683;48.084;17.272;2022-08-01T04:48:16;8.55;;;7.75;;
62610;SDS011;48683;48.084;17.272;2022-08-01T04:50:44;8.18;;;7.43;;
62610;SDS011;48683;48.084;17.272;2022-08-01T04:53:14;10.73;;;8.83;;
62610;SDS011;48683;48.084;17.272;2022-08-01T04:55:41;7.25;;;6.55;;
62610;SDS011;48683;48.084;17.272;2022-08-01T04:58:08;9.00;;;6.75;;
62610;SDS011;48683;48.084;17.272;2022-08-01T05:00:35;6.00;;;5.40;;
62610;SDS011;48683;48.084;17.272;2022-08-01T05:03:00;8.10;;;5.70;;
62610;SDS011;48683;48.084;17.272;2022-08-01T05:05:26;9.23;;;8.40;;
62610;SDS011;48683;48.084;17.272;2022-08-01T05:07:51;9.57;;;8.67;;
62610;SDS011;48683;48.084;17.272;2022-08-01T05:10:17;7.80;;;7.07;;
62610;SDS011;48683;48.084;17.272;2022-08-01T05:12:42;8.67;;;7.87;;
62610;SDS011;48683;48.084;17.272;2022-08-01T05:15:07;10.00;;;9.00;;
62610;SDS011;48683;48.084;17.272;2022-08-01T05:17:33;10.43;;;9.37;;
62610;SDS011;48683;48.084;17.272;2022-08-01T05:19:58;11.30;;;9.40;;
62610;SDS011;48683;48.084;17.272;2022-08-01T05:22:24;9.57;;;7.70;;
62610;SDS011;48683;48.084;17.272;2022-08-01T05:24:50;13.23;;;8.85;;
62610;SDS011;48683;48.084;17.272;2022-08-01T05:27:16;8.33;;;7.53;;
62610;SDS011;48683;48.084;17.272;2022-08-01T05:29:41;12.53;;;7.80;;
62610;SDS011;48683;48.084;17.272;2022-08-01T05:32:07;9.57;;;8.67;;
62610;SDS011;48683;48.084;17.272;2022-08-01T05:34:32;8.70;;;6.63;;
62610;SDS011;48683;48.084;17.272;2022-08-01T05:36:58;9.70;;;8.83;;
62610;SDS011;48683;48.084;17.272;2022-08-01T05:39:23;9.43;;;8.27;;
62610;SDS011;48683;48.084;17.272;2022-08-01T05:41:49;8.80;;;8.00;;
62610;SDS011;48683;48.084;17.272;2022-08-01T05:44:14;9.10;;;7.43;;
62610;SDS011;48683;48.084;17.272;2022-08-01T05:46:40;9.00;;;8.20;;
62610;SDS011;48683;48.084;17.272;2022-08-01T05:49:05;7.03;;;6.37;;
62610;SDS011;48683;48.084;17.272;2022-08-01T05:51:31;10.20;;;9.20;;
62610;SDS011;48683;48.084;17.272;2022-08-01T05:53:57;8.70;;;7.63;;
62610;SDS011;48683;48.084;17.272;2022-08-01T05:56:24;9.00;;;7.95;;
62610;SDS011;48683;48.084;17.272;2022-08-01T05:58:49;10.80;;;7.53;;
62610;SDS011;48683;48.084;17.272;2022-08-01T06:01:16;11.40;;;8.07;;
62610;SDS011;48683;48.084;17.272;2022-08-01T06:03:42;11.32;;;9.60;;
62610;SDS011;48683;48.084;17.272;2022-08-01T06:06:07;9.17;;;8.27;;
62610;SDS011;48683;48.084;17.272;2022-08-01T06:08:33;8.50;;;7.80;;
62610;SDS011;48683;48.084;17.272;2022-08-01T06:10:58;9.97;;;8.00;;
62610;SDS011;48683;48.084;17.272;2022-08-01T06:13:24;9.87;;;8.37;;
62610;SDS011;48683;48.084;17.272;2022-08-01T06:15:49;8.43;;;7.63;;
62610;SDS011;48683;48.084;17.272;2022-08-01T06:18:15;10.50;;;8.63;;
62610;SDS011;48683;48.084;17.272;2022-08-01T06:20:41;10.52;;;8.82;;
62610;SDS011;48683;48.084;17.272;2022-08-01T06:23:07;9.73;;;8.13;;
62610;SDS011;48683;48.084;17.272;2022-08-01T06:25:32;11.20;;;7.70;;
62610;SDS011;48683;48.084;17.272;2022-08-01T06:27:58;9.47;;;8.40;;
62610;SDS011;48683;48.084;17.272;2022-08-01T06:30:24;8.90;;;7.30;;
62610;SDS011;48683;48.084;17.272;2022-08-01T06:32:49;10.77;;;8.40;;
62610;SDS011;48683;48.084;17.272;2022-08-01T06:35:15;8.83;;;7.17;;
62610;SDS011;48683;48.084;17.272;2022-08-01T06:37:40;9.07;;;7.57;;
62610;SDS011;48683;48.084;17.272;2022-08-01T06:40:07;9.20;;;8.40;;
62610;SDS011;48683;48.084;17.272;2022-08-01T06:42:34;11.02;;;8.57;;
62610;SDS011;48683;48.084;17.272;2022-08-01T06:45:10;13.17;;;9.43;;
62610;SDS011;48683;48.084;17.272;2022-08-01T06:47:36;9.57;;;8.60;;
62610;SDS011;48683;48.084;17.272;2022-08-01T06:50:03;9.77;;;8.15;;
62610;SDS011;48683;48.084;17.272;2022-08-01T06:52:29;9.52;;;8.63;;
62610;SDS011;48683;48.084;17.272;2022-08-01T06:54:54;9.20;;;8.40;;
62610;SDS011;48683;48.084;17.272;2022-08-01T06:57:19;8.63;;;7.73;;
62610;SDS011;48683;48.084;17.272;2022-08-01T06:59:45;8.43;;;7.23;;
62610;SDS011;48683;48.084;17.272;2022-08-01T07:02:10;11.27;;;7.63;;
62610;SDS011;48683;48.084;17.272;2022-08-01T07:04:36;8.40;;;7.10;;
62610;SDS011;48683;48.084;17.272;2022-08-01T07:07:02;10.03;;;7.10;;
62610;SDS011;48683;48.084;17.272;2022-08-01T07:09:27;8.80;;;7.00;;
62610;SDS011;48683;48.084;17.272;2022-08-01T07:11:53;8.27;;;7.00;;
62610;SDS011;48683;48.084;17.272;2022-08-01T07:14:20;9.75;;;7.35;;
62610;SDS011;48683;48.084;17.272;2022-08-01T07:16:46;7.32;;;6.65;;
62610;SDS011;48683;48.084;17.272;2022-08-01T07:19:11;7.20;;;6.40;;
62610;SDS011;48683;48.084;17.272;2022-08-01T07:21:37;7.70;;;7.00;;
62610;SDS011;48683;48.084;17.272;2022-08-01T07:24:03;7.47;;;6.57;;
62610;SDS011;48683;48.084;17.272;2022-08-01T07:26:29;10.90;;;7.22;;
62610;SDS011;48683;48.084;17.272;2022-08-01T07:28:55;8.40;;;6.83;;
62610;SDS011;48683;48.084;17.272;2022-08-01T07:31:20;6.97;;;6.37;;
62610;SDS011;48683;48.084;17.272;2022-08-01T07:33:45;8.87;;;7.97;;
62610;SDS011;48683;48.084;17.272;2022-08-01T07:36:11;8.17;;;6.83;;
62610;SDS011;48683;48.084;17.272;2022-08-01T07:38:37;12.20;;;7.30;;
62610;SDS011;48683;48.084;17.272;2022-08-01T07:41:02;10.93;;;9.07;;
62610;SDS011;48683;48.084;17.272;2022-08-01T07:43:28;9.03;;;7.93;;
62610;SDS011;48683;48.084;17.272;2022-08-01T07:45:54;8.60;;;6.60;;
62610;SDS011;48683;48.084;17.272;2022-08-01T07:48:19;9.83;;;7.97;;
62610;SDS011;48683;48.084;17.272;2022-08-01T07:50:48;8.93;;;7.25;;
62610;SDS011;48683;48.084;17.272;2022-08-01T07:53:14;10.60;;;7.93;;
62610;SDS011;48683;48.084;17.272;2022-08-01T07:55:40;10.33;;;7.13;;
62610;SDS011;48683;48.084;17.272;2022-08-01T07:58:05;7.60;;;6.80;;
62610;SDS011;48683;48.084;17.272;2022-08-01T08:00:31;8.53;;;6.80;;
62610;SDS011;48683;48.084;17.272;2022-08-01T08:02:56;6.57;;;5.93;;
62610;SDS011;48683;48.084;17.272;2022-08-01T08:05:24;9.00;;;8.10;;
62610;SDS011;48683;48.084;17.272;2022-08-01T08:10:16;8.20;;;6.73;;
62610;SDS011;48683;48.084;17.272;2022-08-01T08:12:41;8.33;;;6.83;;
62610;SDS011;48683;48.084;17.272;2022-08-01T08:15:07;7.87;;;7.17;;
62610;SDS011;48683;48.084;17.272;2022-08-01T08:17:33;8.50;;;7.38;;
62610;SDS011;48683;48.084;17.272;2022-08-01T08:19:58;7.80;;;7.17;;
62610;SDS011;48683;48.084;17.272;2022-08-01T08:22:24;12.77;;;7.23;;
62610;SDS011;48683;48.084;17.272;2022-08-01T08:24:49;11.37;;;8.07;;
62610;SDS011;48683;48.084;17.272;2022-08-01T08:27:15;8.07;;;7.23;;
62610;SDS011;48683;48.084;17.272;2022-08-01T08:29:40;10.20;;;7.33;;
62610;SDS011;48683;48.084;17.272;2022-08-01T08:32:06;7.03;;;6.25;;
62610;SDS011;48683;48.084;17.272;2022-08-01T08:34:32;7.70;;;6.90;;
62610;SDS011;48683;48.084;17.272;2022-08-01T08:36:58;12.33;;;7.80;;
62610;SDS011;48683;48.084;17.272;2022-08-01T08:39:24;10.40;;;7.60;;
62610;SDS011;48683;48.084;17.272;2022-08-01T08:41:50;9.50;;;8.60;;
62610;SDS011;48683;48.084;17.272;2022-08-01T08:44:16;9.93;;;8.13;;
62610;SDS011;48683;48.084;17.272;2022-08-01T08:46:43;13.20;;;8.45;;
62610;SDS011;48683;48.084;17.272;2022-08-01T08:49:11;11.32;;;8.70;;
62610;SDS011;48683;48.084;17.272;2022-08-01T08:51:40;8.85;;;7.90;;
62610;SDS011;48683;48.084;17.272;2022-08-01T08:54:06;8.75;;;6.65;;
62610;SDS011;48683;48.084;17.272;2022-08-01T08:56:32;7.20;;;6.57;;
62610;SDS011;48683;48.084;17.272;2022-08-01T08:59:00;9.10;;;7.20;;
62610;SDS011;48683;48.084;17.272;2022-08-01T09:01:27;8.13;;;6.70;;
62610;SDS011;48683;48.084;17.272;2022-08-01T09:03:53;9.80;;;6.67;;
62610;SDS011;48683;48.084;17.272;2022-08-01T09:06:18;8.20;;;5.70;;
62610;SDS011;48683;48.084;17.272;2022-08-01T09:08:44;7.47;;;6.50;;
62610;SDS011;48683;48.084;17.272;2022-08-01T09:11:10;6.03;;;5.47;;
62610;SDS011;48683;48.084;17.272;2022-08-01T09:13:35;7.00;;;5.30;;
62610;SDS011;48683;48.084;17.272;2022-08-01T09:16:01;5.53;;;5.03;;
62610;SDS011;48683;48.084;17.272;2022-08-01T09:18:28;6.50;;;5.03;;
62610;SDS011;48683;48.084;17.272;2022-08-01T09:21:11;7.20;;;5.70;;
62610;SDS011;48683;48.084;17.272;2022-08-01T09:26:30;7.65;;;5.97;;
62610;SDS011;48683;48.084;17.272;2022-08-01T09:28:55;7.90;;;5.38;;
62610;SDS011;48683;48.084;17.272;2022-08-01T09:31:21;7.80;;;4.80;;
62610;SDS011;48683;48.084;17.272;2022-08-01T09:36:12;5.63;;;4.63;;
62610;SDS011;48683;48.084;17.272;2022-08-01T09:38:37;6.47;;;4.17;;
62610;SDS011;48683;48.084;17.272;2022-08-01T09:41:02;8.27;;;4.37;;
62610;SDS011;48683;48.084;17.272;2022-08-01T09:43:28;4.47;;;3.77;;
62610;SDS011;48683;48.084;17.272;2022-08-01T09:45:55;4.38;;;3.85;;
62610;SDS011;48683;48.084;17.272;2022-08-01T09:48:21;4.03;;;3.50;;
62610;SDS011;48683;48.084;17.272;2022-08-01T09:50:48;3.80;;;3.47;;
62610;SDS011;48683;48.084;17.272;2022-08-01T09:53:15;5.72;;;3.30;;
62610;SDS011;48683;48.084;17.272;2022-08-01T09:55:41;4.45;;;2.83;;
62610;SDS011;48683;48.084;17.272;2022-08-01T09:58:07;3.50;;;2.88;;
62610;SDS011;48683;48.084;17.272;2022-08-01T10:00:33;3.47;;;2.92;;
62610;SDS011;48683;48.084;17.272;2022-08-01T10:03:00;3.97;;;3.20;;
62610;SDS011;48683;48.084;17.272;2022-08-01T10:05:44;3.30;;;3.00;;
62610;SDS011;48683;48.084;17.272;2022-08-01T10:08:09;3.83;;;3.30;;
62610;SDS011;48683;48.084;17.272;2022-08-01T10:10:35;7.57;;;3.20;;
62610;SDS011;48683;48.084;17.272;2022-08-01T10:13:01;4.25;;;3.40;;
62610;SDS011;48683;48.084;17.272;2022-08-01T10:15:27;4.13;;;3.30;;
62610;SDS011;48683;48.084;17.272;2022-08-01T10:17:58;6.53;;;3.75;;
62610;SDS011;48683;48.084;17.272;2022-08-01T10:20:26;7.72;;;3.40;;
62610;SDS011;48683;48.084;17.272;2022-08-01T10:22:54;8.27;;;3.90;;
62610;SDS011;48683;48.084;17.272;2022-08-01T10:25:23;4.68;;;3.90;;
62610;SDS011;48683;48.084;17.272;2022-08-01T10:27:52;4.25;;;3.60;;
62610;SDS011;48683;48.084;17.272;2022-08-01T10:30:20;7.28;;;3.70;;
62610;SDS011;48683;48.084;17.272;2022-08-01T10:32:46;3.97;;;3.60;;
62610;SDS011;48683;48.084;17.272;2022-08-01T10:35:12;5.30;;;3.67;;
62610;SDS011;48683;48.084;17.272;2022-08-01T10:37:42;3.90;;;3.50;;
62610;SDS011;48683;48.084;17.272;2022-08-01T10:40:11;5.57;;;3.95;;
62610;SDS011;48683;48.084;17.272;2022-08-01T10:42:39;4.32;;;3.78;;
62610;SDS011;48683;48.084;17.272;2022-08-01T10:45:05;5.82;;;4.13;;
62610;SDS011;48683;48.084;17.272;2022-08-01T10:47:36;8.50;;;3.85;;
62610;SDS011;48683;48.084;17.272;2022-08-01T10:56:00;6.40;;;5.80;;
62610;SDS011;48683;48.084;17.272;2022-08-01T10:58:33;8.40;;;5.17;;
62610;SDS011;48683;48.084;17.272;2022-08-01T11:01:28;7.95;;;5.47;;
62610;SDS011;48683;48.084;17.272;2022-08-01T11:03:58;8.35;;;6.20;;
62610;SDS011;48683;48.084;17.272;2022-08-01T11:08:58;7.40;;;3.83;;
62610;SDS011;48683;48.084;17.272;2022-08-01T11:11:28;6.18;;;4.18;;
62610;SDS011;48683;48.084;17.272;2022-08-01T11:16:38;4.93;;;3.50;;
62610;SDS011;48683;48.084;17.272;2022-08-01T11:19:05;4.40;;;3.72;;
62610;SDS011;48683;48.084;17.272;2022-08-01T11:25:00;7.80;;;3.10;;
62610;SDS011;48683;48.084;17.272;2022-08-01T11:29:40;3.53;;;2.70;;
62610;SDS011;48683;48.084;17.272;2022-08-01T11:32:27;4.77;;;3.13;;
62610;SDS011;48683;48.084;17.272;2022-08-01T11:34:53;4.32;;;2.55;;
62610;SDS011;48683;48.084;17.272;2022-08-01T11:37:26;6.22;;;3.20;;
62610;SDS011;48683;48.084;17.272;2022-08-01T11:42:41;3.42;;;3.13;;
62610;SDS011;48683;48.084;17.272;2022-08-01T11:45:06;4.10;;;3.07;;
62610;SDS011;48683;48.084;17.272;2022-08-01T11:47:47;4.60;;;3.08;;
62610;SDS011;48683;48.084;17.272;2022-08-01T11:50:33;6.10;;;3.22;;
62610;SDS011;48683;48.084;17.272;2022-08-01T11:55:29;4.35;;;2.85;;
62610;SDS011;48683;48.084;17.272;2022-08-01T11:57:59;6.30;;;3.10;;
62610;SDS011;48683;48.084;17.272;2022-08-01T12:00:29;4.80;;;2.88;;
62610;SDS011;48683;48.084;17.272;2022-08-01T12:02:59;7.45;;;2.88;;
62610;SDS011;48683;48.084;17.272;2022-08-01T12:05:28;2.92;;;2.60;;
62610;SDS011;48683;48.084;17.272;2022-08-01T12:07:55;3.55;;;2.75;;
62610;SDS011;48683;48.084;17.272;2022-08-01T12:10:23;3.88;;;2.90;;
62610;SDS011;48683;48.084;17.272;2022-08-01T12:12:51;4.65;;;2.42;;
62610;SDS011;48683;48.084;17.272;2022-08-01T12:15:23;3.90;;;2.38;;
62610;SDS011;48683;48.084;17.272;2022-08-01T12:17:56;8.13;;;2.83;;
62610;SDS011;48683;48.084;17.272;2022-08-01T12:20:41;3.90;;;2.83;;
62610;SDS011;48683;48.084;17.272;2022-08-01T12:23:10;3.05;;;2.70;;
62610;SDS011;48683;48.084;17.272;2022-08-01T12:25:37;3.35;;;2.80;;
62610;SDS011;48683;48.084;17.272;2022-08-01T12:28:08;7.07;;;2.65;;
62610;SDS011;48683;48.084;17.272;2022-08-01T12:30:35;4.88;;;2.80;;
62610;SDS011;48683;48.084;17.272;2022-08-01T12:33:02;2.83;;;2.50;;
62610;SDS011;48683;48.084;17.272;2022-08-01T12:35:30;3.17;;;2.60;;
62610;SDS011;48683;48.084;17.272;2022-08-01T12:37:57;2.40;;;2.20;;
62610;SDS011;48683;48.084;17.272;2022-08-01T12:40:31;5.43;;;2.60;;
62610;SDS011;48683;48.084;17.272;2022-08-01T12:42:59;4.05;;;2.20;;
62610;SDS011;48683;48.084;17.272;2022-08-01T12:45:27;4.10;;;2.72;;
62610;SDS011;48683;48.084;17.272;2022-08-01T12:47:55;2.63;;;2.42;;
62610;SDS011;48683;48.084;17.272;2022-08-01T12:50:26;2.40;;;2.20;;
62610;SDS011;48683;48.084;17.272;2022-08-01T12:52:54;3.00;;;2.70;;
62610;SDS011;48683;48.084;17.272;2022-08-01T12:55:20;3.58;;;2.67;;
62610;SDS011;48683;48.084;17.272;2022-08-01T12:57:49;2.80;;;2.60;;
62610;SDS011;48683;48.084;17.272;2022-08-01T13:00:22;2.55;;;2.13;;
62610;SDS011;48683;48.084;17.272;2022-08-01T13:03:03;6.53;;;2.40;;
62610;SDS011;48683;48.084;17.272;2022-08-01T13:08:12;3.72;;;2.60;;
62610;SDS011;48683;48.084;17.272;2022-08-01T13:10:39;3.33;;;2.40;;
62610;SDS011;48683;48.084;17.272;2022-08-01T13:13:04;2.35;;;2.15;;
62610;SDS011;48683;48.084;17.272;2022-08-01T13:15:31;2.45;;;2.25;;
62610;SDS011;48683;48.084;17.272;2022-08-01T13:18:00;2.90;;;2.20;;
62610;SDS011;48683;48.084;17.272;2022-08-01T13:20:45;4.63;;;2.25;;
62610;SDS011;48683;48.084;17.272;2022-08-01T13:23:14;2.77;;;2.50;;
62610;SDS011;48683;48.084;17.272;2022-08-01T13:28:24;2.85;;;2.50;;
62610;SDS011;48683;48.084;17.272;2022-08-01T13:30:55;2.50;;;2.30;;
62610;SDS011;48683;48.084;17.272;2022-08-01T13:33:21;2.40;;;2.20;;
62610;SDS011;48683;48.084;17.272;2022-08-01T13:35:48;3.35;;;2.30;;
62610;SDS011;48683;48.084;17.272;2022-08-01T13:38:14;3.88;;;2.10;;
62610;SDS011;48683;48.084;17.272;2022-08-01T13:40:40;4.67;;;2.40;;
62610;SDS011;48683;48.084;17.272;2022-08-01T13:43:05;2.60;;;2.40;;
62610;SDS011;48683;48.084;17.272;2022-08-01T13:45:30;3.93;;;2.30;;
62610;SDS011;48683;48.084;17.272;2022-08-01T13:47:56;4.00;;;2.20;;
62610;SDS011;48683;48.084;17.272;2022-08-01T13:50:21;2.77;;;2.20;;
62610;SDS011;48683;48.084;17.272;2022-08-01T13:52:46;2.80;;;2.00;;
62610;SDS011;48683;48.084;17.272;2022-08-01T13:55:12;3.80;;;2.40;;
62610;SDS011;48683;48.084;17.272;2022-08-01T13:57:37;2.60;;;2.40;;
62610;SDS011;48683;48.084;17.272;2022-08-01T14:00:06;3.17;;;2.08;;
62610;SDS011;48683;48.084;17.272;2022-08-01T14:02:33;3.58;;;1.83;;
62610;SDS011;48683;48.084;17.272;2022-08-01T14:04:59;2.72;;;2.25;;
62610;SDS011;48683;48.084;17.272;2022-08-01T14:07:24;2.27;;;2.10;;
62610;SDS011;48683;48.084;17.272;2022-08-01T14:09:50;2.83;;;2.50;;
62610;SDS011;48683;48.084;17.272;2022-08-01T14:12:15;6.37;;;2.67;;
62610;SDS011;48683;48.084;17.272;2022-08-01T14:14:40;2.63;;;2.43;;
62610;SDS011;48683;48.084;17.272;2022-08-01T14:17:06;2.83;;;2.27;;
62610;SDS011;48683;48.084;17.272;2022-08-01T14:19:31;2.97;;;2.60;;
62610;SDS011;48683;48.084;17.272;2022-08-01T14:21:56;3.17;;;2.40;;
62610;SDS011;48683;48.084;17.272;2022-08-01T14:24:22;6.77;;;2.20;;
62610;SDS011;48683;48.084;17.272;2022-08-01T14:29:14;2.28;;;2.08;;
62610;SDS011;48683;48.084;17.272;2022-08-01T14:31:39;4.50;;;2.47;;
62610;SDS011;48683;48.084;17.272;2022-08-01T14:34:05;3.95;;;2.17;;
62610;SDS011;48683;48.084;17.272;2022-08-01T14:36:30;1.97;;;1.77;;
62610;SDS011;48683;48.084;17.272;2022-08-01T14:38:56;2.67;;;2.10;;
62610;SDS011;48683;48.084;17.272;2022-08-01T14:41:21;3.97;;;2.23;;
62610;SDS011;48683;48.084;17.272;2022-08-01T14:43:46;2.23;;;2.03;;
62610;SDS011;48683;48.084;17.272;2022-08-01T14:46:12;6.07;;;2.67;;
62610;SDS011;48683;48.084;17.272;2022-08-01T14:48:38;14.15;;;2.65;;
62610;SDS011;48683;48.084;17.272;2022-08-01T14:51:03;5.82;;;2.60;;
62610;SDS011;48683;48.084;17.272;2022-08-01T14:53:29;6.17;;;2.67;;
62610;SDS011;48683;48.084;17.272;2022-08-01T14:55:55;6.00;;;2.30;;
62610;SDS011;48683;48.084;17.272;2022-08-01T14:58:20;2.77;;;1.87;;
62610;SDS011;48683;48.084;17.272;2022-08-01T15:00:45;3.43;;;1.70;;
62610;SDS011;48683;48.084;17.272;2022-08-01T15:03:11;4.93;;;1.90;;
62610;SDS011;48683;48.084;17.272;2022-08-01T15:05:36;3.17;;;2.20;;
62610;SDS011;48683;48.084;17.272;2022-08-01T15:08:02;3.83;;;2.20;;
62610;SDS011;48683;48.084;17.272;2022-08-01T15:10:28;6.88;;;2.45;;
62610;SDS011;48683;48.084;17.272;2022-08-01T15:12:53;3.63;;;2.40;;
62610;SDS011;48683;48.084;17.272;2022-08-01T15:15:18;5.93;;;2.77;;
62610;SDS011;48683;48.084;17.272;2022-08-01T15:17:44;3.37;;;2.70;;
62610;SDS011;48683;48.084;17.272;2022-08-01T15:20:10;2.53;;;2.30;;
62610;SDS011;48683;48.084;17.272;2022-08-01T15:22:35;2.35;;;2.05;;
62610;SDS011;48683;48.084;17.272;2022-08-01T15:25:01;2.90;;;2.27;;
62610;SDS011;48683;48.084;17.272;2022-08-01T15:27:27;3.17;;;2.60;;
62610;SDS011;48683;48.084;17.272;2022-08-01T15:29:53;3.40;;;2.40;;
62610;SDS011;48683;48.084;17.272;2022-08-01T15:32:20;2.25;;;2.05;;